Monday, March 30, 2015
05:51 UTC
  |  Log In   |  Register Free
Airport Search:

Ellington Airport
(KEFD)

FAA data valid effective March 05, 2015 - April 30, 2015 (unless otherwise noted).

 
 
 
 
 
 
 
 
 
 
 
 
 
 

Current Aviation Weather for Ellington Airport (KEFD)

The most recent METAR observation for KEFD was updated at: 1408
METAR Summary (Translated METAR)
KEFD
251350Z 13004KT 5SM BR SCT017 20/19 A3002
KHOU
251353Z 14004KT 10SM SCT020 SCT250 18/18 A3001 RMK AO2 SLP166 T01830178
(6.7 nm NW from KEFD)
KLVJ
251353Z AUTO 13004KT 5SM BR SCT020 18/17 A3002 RMK AO2 SLP165 T01830172
(6.8 nm SW from KEFD)
TAF Summary (Translated TAF)
KEFD
2513/2618 13006KT 6000 BR SCT015 QNH2995INS BECMG 2515/2516 VRB06KT 9999 NSW FEW015 QNH2994INS BECMG 2523/2524 16009KT 9999 SCT010 QNH2991INS BECMG 2608/2609 VRB06KT 8000 BR OVC010 QNH2987INS BECMG 2614/2615 25009KT 8000 -RA BR OVC008 QNH2986INS TEMPO 2615/2618 29010G15KT 4800 -TSRA BR OVC005CB TX25/2520Z TN13/2612Z AMD 251351
KHOU
(6.7 nm NW from KEFD)
251120Z 2512/2612 00000KT 2SM BR FEW015 FM251400 15007KT P6SM SCT025 FM252000 12014KT P6SM BKN250 FM260200 15006KT P6SM SCT100 FM260800 21004KT P6SM VCSH SCT007 BKN012
  Airport Weather Conditions for KEFD

 Current Weather at EFD
68° F
A Few Clouds
South winds at 8.1 mph
EFD NOAA Radar

Pressure: 30.15 in
Humidity: 88%
Wind: South at 8.1 MPH (7 KT)
Dew Point: 64.4°F
Visibility: 10.00 mi


Airport Weather Forecast for KEFD

Translated METAR and TAF for KEFD
Translated METAR for KEFD (0550 UTC 30 March 2015)
found at http://aviationweather.gov/adds/metars/
 
METAR text: KEFD 300450Z 18005KT 10SM FEW025 20/17 A3016
Conditions at: KEFD (HOUSTON/ELLINGTO, TX, US) observed 0450 UTC 30 March 2015
Temperature: 20.0°C (68°F)
Dewpoint: 17.0°C (63°F) [RH = 83%]
Pressure (altimeter): 30.16 inches Hg (1021.4 mb)
Winds: from the S (180 degrees) at 6 MPH (5 knots; 2.6 m/s)
Visibility: 10 or more miles (16+ km)
Ceiling: at least 12,000 feet AGL
Clouds: few clouds at 2500 feet AGL
Weather: no significant weather observed at this time
Translated TAF for KEFD
Forecast for: KEFD (HOUSTON/ELLINGTO, TX, US)
TAF Text: TAF AMD KEFD 3005/3110 18005KT 9999 FEW025 QNH3013INS
Forecast period: 0500 to 0800 UTC 30 March 2015
Forecast type: FROM: standard forecast or significant change
Winds: from the S (180 degrees) at 6 MPH (5 knots; 2.6 m/s)
Visibility: 6 or more miles (10+ km)
Clouds: few clouds at 2500 feet AGL
Weather: no significant weather forecast for this period
TAF Text: BECMG 3008/3009 20006KT 6000 BR BKN015 QNH3006INS
Forecast period: 0800 to 1100 UTC 30 March 2015
Forecast type: BECOMING: Conditions expected to become as follows by 0900 UTC 30 March 2015
Winds: from the SSW (200 degrees) at 7 MPH (6 knots; 3.1 m/s)
Visibility: 4 miles (6 km)
Ceiling: 1500 feet AGL
Clouds: broken clouds at 1500 feet AGL
Weather: BR  (mist)
TAF Text: BECMG 3011/3012 20006KT 8000 BR BKN020 QNH3009INS
Forecast period: 1100 to 1400 UTC 30 March 2015
Forecast type: BECOMING: Conditions expected to become as follows by 1200 UTC 30 March 2015
Winds: from the SSW (200 degrees) at 7 MPH (6 knots; 3.1 m/s)
Visibility: 5 miles (8 km)
Ceiling: 2000 feet AGL
Clouds: broken clouds at 2000 feet AGL
Weather: BR  (mist)
TAF Text: BECMG 3014/3015 20006KT 9999 NSW BKN025 QNH3012INS
Forecast period: 1400 to 2000 UTC 30 March 2015
Forecast type: BECOMING: Conditions expected to become as follows by 1500 UTC 30 March 2015
Winds: from the SSW (200 degrees) at 7 MPH (6 knots; 3.1 m/s)
Visibility: 6 or more miles (10+ km)
Ceiling: 2500 feet AGL
Clouds: broken clouds at 2500 feet AGL
Weather: NSW  (no significant weather)
TAF Text: BECMG 3020/3021 17006KT 9999 SCT025 QNH3011INS
Forecast period: 2000 UTC 30 March 2015 to 0800 UTC 31 March 2015
Forecast type: BECOMING: Conditions expected to become as follows by 2100 UTC 30 March 2015
Winds: from the S (170 degrees) at 7 MPH (6 knots; 3.1 m/s)
Visibility: 6 or more miles (10+ km)
Clouds: scattered clouds at 2500 feet AGL
Weather: NSW  (no significant weather)
TAF Text: BECMG 3108/3109 16006KT 8000 BR BKN010 QNH3001INS TX26/3020Z TN16/3011Z AMD 300509
Forecast period: 0800 to 1000 UTC 31 March 2015
Forecast type: BECOMING: Conditions expected to become as follows by 0900 UTC 31 March 2015
Winds: from the SSE (160 degrees) at 7 MPH (6 knots; 3.1 m/s)
Visibility: 5 miles (8 km)
Ceiling: 1000 feet AGL
Clouds: broken clouds at 1000 feet AGL
Weather: BR  (mist)

Find All Airport Services Find A Hotel Find A Rental Car Find A Golf Course Find A Restaurant $100 Hamburger



FBO's on the Field
FBO Company Facility Photos Services Transportation Aviation Fuel Prices: Prices include tax
Catering Weather Repair Courtesy Rental Type 100LL JetA JetA+ MOGAS 8087
 
Landmark Aviation - EFD

This FBO has not yet been rated
FS:Independent
Last Updated: Mar-27
Login to update fuel prices
SS:
Contact Landmark Aviation - EFDMore FBO Information
 
Add another FBO Facility Photos Catering Weather Repair Courtesy Rental Type 100LL JetA JetA+ MOGAS 8087
Services Transportation Aviation Fuel Prices: Prices include tax


model-print
model-print
model-print
model-print